createdAt,value
2023-02-26T00:00:10.442Z,1.30
2023-02-26T00:02:38.700Z,1.00
2023-02-26T00:05:06.991Z,0.82
2023-02-26T00:07:34.170Z,0.80
2023-02-26T00:10:04.157Z,0.90
2023-02-26T00:12:31.296Z,0.93
2023-02-26T00:14:58.635Z,1.00
2023-02-26T00:17:40.316Z,1.08
2023-02-26T00:20:09.317Z,1.10
2023-02-26T00:22:37.007Z,0.80
2023-02-26T00:25:04.579Z,1.00
2023-02-26T00:27:31.286Z,0.88
2023-02-26T00:29:58.300Z,0.90
2023-02-26T00:32:25.313Z,0.90
2023-02-26T00:34:52.414Z,1.13
2023-02-26T00:37:42.788Z,0.90
2023-02-26T00:40:18.273Z,0.80
2023-02-26T00:42:45.223Z,1.00
2023-02-26T00:45:12.616Z,1.00
2023-02-26T00:47:49.668Z,0.90
2023-02-26T00:50:17.685Z,1.20
2023-02-26T00:52:49.567Z,1.00
2023-02-26T00:55:16.382Z,0.85
2023-02-26T00:57:43.089Z,1.00
2023-02-26T01:00:11.081Z,1.10
2023-02-26T01:02:39.251Z,0.93
2023-02-26T01:05:06.818Z,0.60
2023-02-26T01:07:54.412Z,0.80
2023-02-26T01:10:21.591Z,0.95
2023-02-26T01:12:48.448Z,0.82
2023-02-26T01:15:15.562Z,0.80
2023-02-26T01:17:52.661Z,1.00
2023-02-26T01:20:22.997Z,0.98
2023-02-26T01:22:57.313Z,0.80
2023-02-26T01:25:38.779Z,1.00
2023-02-26T01:28:05.721Z,0.90
2023-02-26T01:30:32.730Z,0.85
2023-02-26T01:33:09.224Z,1.15
2023-02-26T01:35:42.243Z,1.00
2023-02-26T01:38:46.664Z,0.80
2023-02-26T01:41:18.009Z,0.90
2023-02-26T01:44:03.165Z,0.80
2023-02-26T01:46:56.450Z,0.90
2023-02-26T01:49:23.333Z,0.88
2023-02-26T01:51:54.943Z,0.80
2023-02-26T01:54:28.184Z,0.80
2023-02-26T01:57:06.138Z,0.90
2023-02-26T01:59:33.298Z,0.80
2023-02-26T02:02:00.123Z,0.93
2023-02-26T02:04:26.932Z,0.90
2023-02-26T02:06:54.443Z,1.10
2023-02-26T02:09:21.226Z,1.13
2023-02-26T02:12:24.115Z,0.80
2023-02-26T02:15:28.280Z,1.02
2023-02-26T02:18:07.558Z,0.93
2023-02-26T02:20:49.556Z,1.00
2023-02-26T02:23:22.776Z,0.90
2023-02-26T02:26:01.114Z,0.90
2023-02-26T02:28:58.931Z,0.93
2023-02-26T02:31:31.887Z,1.00
2023-02-26T02:34:04.645Z,0.80
2023-02-26T02:36:39.744Z,1.02
2023-02-26T02:39:18.173Z,0.82
2023-02-26T02:41:57.142Z,1.00
2023-02-26T02:44:25.780Z,0.90
2023-02-26T02:46:53.750Z,0.98
2023-02-26T02:49:38.568Z,0.90
2023-02-26T02:52:16.585Z,1.05
2023-02-26T02:54:58.732Z,0.93
2023-02-26T02:57:50.728Z,0.80
2023-02-26T03:00:18.568Z,1.00
2023-02-26T03:03:05.369Z,1.10
2023-02-26T03:05:32.117Z,0.75
2023-02-26T03:08:10.347Z,1.05
2023-02-26T03:10:37.117Z,0.90
2023-02-26T03:13:04.076Z,0.88
2023-02-26T03:15:43.573Z,1.13
2023-02-26T03:18:48.476Z,0.80
2023-02-26T03:21:21.855Z,1.02
2023-02-26T03:24:18.778Z,0.95
2023-02-26T03:26:58.886Z,0.90
2023-02-26T03:29:53.211Z,1.00
2023-02-26T03:32:27.740Z,0.88
2023-02-26T03:35:05.223Z,0.90
2023-02-26T03:37:48.714Z,0.80
2023-02-26T03:40:32.885Z,1.00
2023-02-26T03:43:23.772Z,0.85
2023-02-26T03:45:51.507Z,0.80
2023-02-26T03:48:20.558Z,1.00
2023-02-26T03:50:51.693Z,0.90
2023-02-26T03:53:25.527Z,1.00
2023-02-26T03:56:06.665Z,0.98
2023-02-26T03:58:33.406Z,0.70
2023-02-26T04:01:06.216Z,0.80
2023-02-26T04:03:55.838Z,0.95
2023-02-26T04:06:22.751Z,0.90
2023-02-26T04:08:50.886Z,1.20
2023-02-26T04:11:20.986Z,0.90
2023-02-26T04:13:47.803Z,0.95
2023-02-26T04:16:14.857Z,0.82
2023-02-26T04:18:42.545Z,0.90
2023-02-26T04:21:17.180Z,0.77
2023-02-26T04:23:43.937Z,1.00
2023-02-26T04:26:10.961Z,1.10
2023-02-26T04:28:37.944Z,1.10
2023-02-26T04:31:05.664Z,0.90
2023-02-26T04:33:33.214Z,0.80
2023-02-26T04:36:00.580Z,1.25
2023-02-26T04:38:27.420Z,1.35
2023-02-26T04:40:54.132Z,1.00
2023-02-26T04:43:27.179Z,1.10
2023-02-26T04:45:53.904Z,1.02
2023-02-26T04:48:21.384Z,0.85
2023-02-26T04:50:48.095Z,0.95
2023-02-26T04:53:14.812Z,1.35
2023-02-26T04:55:41.561Z,1.02
2023-02-26T04:58:11.185Z,0.90
2023-02-26T05:00:37.865Z,0.65
2023-02-26T05:03:04.531Z,1.20
2023-02-26T05:05:31.330Z,1.00
2023-02-26T05:07:58.181Z,1.00
2023-02-26T05:10:25.273Z,0.93
2023-02-26T05:12:52.576Z,1.00
2023-02-26T05:15:19.981Z,0.98
2023-02-26T05:17:46.745Z,0.90
2023-02-26T05:20:13.495Z,1.20
2023-02-26T05:22:40.161Z,1.00
2023-02-26T05:25:07.133Z,0.90
2023-02-26T05:27:34.020Z,1.02
2023-02-26T05:30:00.735Z,0.90
2023-02-26T05:32:27.648Z,0.70
2023-02-26T05:34:56.024Z,1.20
2023-02-26T05:37:23.543Z,0.80
2023-02-26T05:39:50.992Z,1.05
2023-02-26T05:42:17.669Z,1.10
2023-02-26T05:44:44.406Z,0.90
2023-02-26T05:47:11.076Z,1.00
2023-02-26T05:49:40.145Z,1.23
2023-02-26T05:52:06.877Z,0.93
2023-02-26T05:54:34.311Z,1.00
2023-02-26T05:57:00.988Z,0.93
2023-02-26T05:59:27.699Z,1.10
2023-02-26T06:01:55.507Z,0.95
2023-02-26T06:04:22.180Z,1.10
2023-02-26T06:06:48.847Z,0.90
2023-02-26T06:09:15.588Z,1.00
2023-02-26T06:11:42.283Z,1.10
2023-02-26T06:14:09.041Z,1.00
2023-02-26T06:16:35.944Z,1.10
2023-02-26T06:19:02.947Z,1.00
2023-02-26T06:21:29.751Z,1.00
2023-02-26T06:23:56.668Z,1.00
2023-02-26T06:26:25.539Z,1.05
2023-02-26T06:28:53.387Z,1.02
2023-02-26T06:31:20.191Z,1.15
2023-02-26T06:33:46.950Z,0.90
2023-02-26T06:36:13.697Z,1.00
2023-02-26T06:38:40.472Z,0.88
2023-02-26T06:41:07.719Z,1.00
2023-02-26T06:43:35.304Z,0.90
2023-02-26T06:46:02.411Z,1.15
2023-02-26T06:48:29.427Z,1.00
2023-02-26T06:50:56.116Z,1.17
2023-02-26T06:53:23.594Z,1.20
2023-02-26T06:55:52.222Z,0.90
2023-02-26T06:58:19.409Z,1.25
2023-02-26T07:00:46.183Z,1.00
2023-02-26T07:03:14.261Z,1.30
2023-02-26T07:05:41.317Z,1.15
2023-02-26T07:08:08.140Z,1.17
2023-02-26T07:10:35.652Z,1.20
2023-02-26T07:13:02.349Z,1.27
2023-02-26T07:15:29.184Z,1.10
2023-02-26T07:17:55.976Z,1.20
2023-02-26T07:20:23.949Z,0.82
2023-02-26T07:22:51.214Z,1.00
2023-02-26T07:25:17.935Z,1.27
2023-02-26T07:27:44.652Z,1.10
2023-02-26T07:30:11.908Z,1.10
2023-02-26T07:32:38.932Z,1.10
2023-02-26T07:35:06.371Z,1.50
2023-02-26T07:37:33.378Z,1.35
2023-02-26T07:40:00.393Z,1.15
2023-02-26T07:42:27.370Z,1.13
2023-02-26T07:44:55.934Z,1.00
2023-02-26T07:47:23.288Z,1.20
2023-02-26T07:49:50.902Z,1.25
2023-02-26T07:52:17.835Z,1.30
2023-02-26T07:54:45.176Z,1.05
2023-02-26T07:57:12.057Z,1.02
2023-02-26T07:59:38.747Z,1.40
2023-02-26T08:02:05.595Z,1.13
2023-02-26T08:04:33.111Z,1.00
2023-02-26T08:07:01.508Z,1.35
2023-02-26T08:09:28.401Z,1.08
2023-02-26T08:11:56.175Z,1.17
2023-02-26T08:14:24.107Z,1.08
2023-02-26T08:16:53.789Z,1.00
2023-02-26T08:19:20.491Z,1.20
2023-02-26T08:21:47.854Z,1.20
2023-02-26T08:24:14.747Z,1.00
2023-02-26T08:26:41.550Z,0.90
2023-02-26T08:29:08.235Z,0.90
2023-02-26T08:31:35.430Z,0.82
2023-02-26T08:34:02.250Z,1.10
2023-02-26T08:36:28.980Z,0.93
2023-02-26T08:38:56.216Z,0.75
2023-02-26T08:41:23.867Z,1.00
2023-02-26T08:43:51.438Z,0.95
2023-02-26T08:46:18.193Z,0.77
2023-02-26T08:48:44.976Z,0.90
2023-02-26T08:51:11.733Z,1.00
2023-02-26T08:53:39.912Z,1.20
2023-02-26T08:56:06.765Z,1.00
2023-02-26T08:58:33.500Z,1.23
2023-02-26T09:01:00.227Z,0.90
2023-02-26T09:03:26.986Z,0.70
2023-02-26T09:05:55.443Z,0.80
2023-02-26T09:08:22.245Z,1.02
2023-02-26T09:10:50.094Z,0.82
2023-02-26T09:13:16.762Z,0.98
2023-02-26T09:15:43.503Z,0.80
2023-02-26T09:18:15.423Z,0.80
2023-02-26T09:20:43.428Z,0.93
2023-02-26T09:23:10.247Z,0.80
2023-02-26T09:25:36.932Z,0.80
2023-02-26T09:28:03.887Z,0.90
2023-02-26T09:30:30.943Z,0.73
2023-02-26T09:32:57.622Z,0.75
2023-02-26T09:35:24.908Z,0.70
2023-02-26T09:37:51.616Z,0.80
2023-02-26T09:40:36.688Z,0.80
2023-02-26T09:43:19.836Z,0.80
2023-02-26T09:45:46.611Z,0.80
2023-02-26T09:48:15.097Z,0.90
2023-02-26T09:50:50.683Z,0.60
2023-02-26T09:53:27.494Z,0.77
2023-02-26T09:55:58.096Z,0.70
2023-02-26T09:58:35.485Z,0.80
2023-02-26T10:01:16.098Z,0.57
2023-02-26T10:03:49.023Z,0.77
2023-02-26T10:06:25.812Z,0.65
2023-02-26T10:09:08.039Z,0.65
2023-02-26T10:11:58.009Z,0.70
2023-02-26T10:14:40.355Z,0.70
2023-02-26T10:17:14.864Z,0.75
2023-02-26T10:19:43.412Z,0.80
2023-02-26T10:22:29.129Z,0.60
2023-02-26T10:25:10.050Z,0.60
2023-02-26T10:27:57.007Z,0.63
2023-02-26T10:30:33.626Z,0.73
2023-02-26T10:33:07.289Z,0.70
2023-02-26T10:35:37.639Z,0.90
2023-02-26T10:38:16.452Z,1.08
2023-02-26T10:40:50.632Z,1.20
2023-02-26T10:43:30.048Z,0.80
2023-02-26T10:46:07.367Z,1.27
2023-02-26T10:48:59.662Z,1.83
2023-02-26T10:51:37.664Z,1.80
2023-02-26T10:54:13.194Z,2.33
2023-02-26T10:56:39.901Z,2.00
2023-02-26T10:59:06.697Z,2.00
2023-02-26T11:01:33.525Z,2.20
2023-02-26T11:04:09.026Z,1.80
2023-02-26T11:07:01.937Z,2.55
2023-02-26T11:09:39.560Z,2.65
2023-02-26T11:12:15.951Z,2.78
2023-02-26T11:14:43.012Z,2.58
2023-02-26T11:17:19.452Z,1.85
2023-02-26T11:19:56.992Z,2.33
2023-02-26T11:22:25.788Z,2.15
2023-02-26T11:24:52.502Z,1.88
2023-02-26T11:27:23.411Z,1.85
2023-02-26T11:29:58.876Z,2.78
2023-02-26T11:32:36.936Z,2.20
2023-02-26T11:35:04.295Z,2.53
2023-02-26T11:37:34.232Z,2.50
2023-02-26T11:40:11.639Z,2.20
2023-02-26T11:42:39.473Z,2.50
2023-02-26T11:45:07.142Z,2.50
2023-02-26T11:47:34.023Z,2.40
2023-02-26T11:50:04.576Z,2.55
2023-02-26T11:52:41.594Z,2.30
2023-02-26T11:55:21.453Z,2.67
2023-02-26T11:57:55.816Z,2.17
2023-02-26T12:00:40.198Z,2.20
2023-02-26T12:03:10.699Z,1.88
2023-02-26T12:05:37.464Z,1.70
2023-02-26T12:08:06.144Z,2.15
2023-02-26T12:10:43.643Z,2.03
2023-02-26T12:13:34.667Z,1.67
2023-02-26T12:16:04.379Z,2.20
2023-02-26T12:18:38.523Z,2.10
2023-02-26T12:21:17.551Z,1.83
2023-02-26T12:24:05.553Z,1.73
2023-02-26T12:26:42.698Z,1.60
2023-02-26T12:29:18.199Z,1.50
2023-02-26T12:32:06.371Z,1.88
2023-02-26T12:34:42.025Z,1.80
2023-02-26T12:37:14.467Z,1.75
2023-02-26T12:40:15.042Z,1.60
2023-02-26T12:43:08.325Z,1.73
2023-02-26T12:45:43.017Z,1.50
2023-02-26T12:48:22.153Z,1.45
2023-02-26T12:51:16.908Z,1.60
2023-02-26T12:54:13.700Z,1.63
2023-02-26T12:56:49.150Z,1.30
2023-02-26T12:59:26.125Z,1.40
2023-02-26T13:02:05.232Z,1.58
2023-02-26T13:04:52.093Z,1.38
2023-02-26T13:07:22.298Z,1.40
2023-02-26T13:09:56.508Z,1.50
2023-02-26T13:12:36.110Z,1.30
2023-02-26T13:15:11.539Z,1.30
2023-02-26T13:17:40.981Z,1.15
2023-02-26T13:20:32.784Z,1.50
2023-02-26T13:23:19.649Z,1.50
2023-02-26T13:25:55.801Z,1.52
2023-02-26T13:28:53.024Z,1.25
2023-02-26T13:31:51.120Z,1.30
2023-02-26T13:34:51.128Z,1.20
2023-02-26T13:37:29.845Z,1.52
2023-02-26T13:40:35.709Z,1.38
2023-02-26T13:43:17.229Z,1.35
2023-02-26T13:45:58.583Z,1.92
2023-02-26T13:48:40.311Z,1.50
2023-02-26T13:51:15.704Z,1.35
2023-02-26T13:53:46.430Z,1.05
2023-02-26T13:56:23.410Z,1.35
2023-02-26T13:58:53.776Z,1.95
2023-02-26T14:01:48.306Z,1.20
2023-02-26T14:04:24.077Z,1.40
2023-02-26T14:07:15.431Z,1.10
2023-02-26T14:09:58.129Z,1.05
2023-02-26T14:12:32.711Z,1.05
2023-02-26T14:15:02.291Z,1.17
2023-02-26T14:17:49.414Z,1.30
2023-02-26T14:20:22.242Z,1.13
2023-02-26T14:23:13.279Z,1.80
2023-02-26T14:25:52.748Z,1.30
2023-02-26T14:28:29.630Z,1.00
2023-02-26T14:31:11.677Z,1.00
2023-02-26T14:34:14.501Z,1.60
2023-02-26T14:36:49.420Z,1.48
2023-02-26T14:39:35.835Z,0.98
2023-02-26T14:42:05.788Z,0.90
2023-02-26T14:44:39.136Z,1.00
2023-02-26T14:47:06.421Z,1.30
2023-02-26T14:49:35.869Z,1.25
2023-02-26T14:52:23.773Z,1.50
2023-02-26T14:54:54.316Z,1.30
2023-02-26T14:57:51.906Z,1.20
2023-02-26T15:00:50.056Z,0.98
2023-02-26T15:03:35.413Z,1.30
2023-02-26T15:06:15.764Z,0.98
2023-02-26T15:08:52.356Z,1.15
2023-02-26T15:11:32.816Z,0.88
2023-02-26T15:14:14.000Z,1.27
2023-02-26T15:16:49.652Z,1.13
2023-02-26T15:19:22.490Z,0.90
2023-02-26T15:22:31.123Z,0.98
2023-02-26T15:24:58.762Z,1.00
2023-02-26T15:27:26.230Z,1.25
2023-02-26T15:29:53.087Z,0.93
2023-02-26T15:32:30.521Z,1.08
2023-02-26T15:35:01.950Z,1.08
2023-02-26T15:37:33.601Z,0.70
2023-02-26T15:40:04.786Z,1.00
2023-02-26T15:42:34.180Z,1.30
2023-02-26T15:45:02.171Z,1.33
2023-02-26T15:47:30.553Z,1.58
2023-02-26T15:49:58.121Z,1.15
2023-02-26T15:52:25.472Z,1.10
2023-02-26T15:55:01.418Z,1.10
2023-02-26T15:57:28.377Z,1.00
2023-02-26T16:00:02.323Z,1.60
2023-02-26T16:02:32.165Z,0.80
2023-02-26T16:04:58.880Z,0.98
2023-02-26T16:07:25.563Z,1.13
2023-02-26T16:09:54.189Z,1.10
2023-02-26T16:12:32.712Z,1.00
2023-02-26T16:15:01.154Z,1.20
2023-02-26T16:17:30.955Z,1.27
2023-02-26T16:19:59.256Z,0.90
2023-02-26T16:22:40.229Z,0.90
2023-02-26T16:25:12.680Z,0.80
2023-02-26T16:27:40.798Z,0.90
2023-02-26T16:30:09.852Z,1.75
2023-02-26T16:32:36.631Z,1.38
2023-02-26T16:35:17.337Z,1.23
2023-02-26T16:37:45.336Z,1.20
2023-02-26T16:40:25.966Z,1.27
2023-02-26T16:43:11.216Z,1.15
2023-02-26T16:45:37.848Z,0.90
2023-02-26T16:48:11.618Z,1.02
2023-02-26T16:50:38.323Z,1.20
2023-02-26T16:53:15.970Z,1.15
2023-02-26T16:55:43.372Z,1.02
2023-02-26T16:58:12.461Z,0.90
2023-02-26T17:00:39.360Z,0.80
2023-02-26T17:03:17.598Z,1.17
2023-02-26T17:06:00.656Z,1.20
2023-02-26T17:08:32.848Z,0.90
2023-02-26T17:11:06.591Z,1.55
2023-02-26T17:13:34.428Z,1.30
2023-02-26T17:16:09.259Z,1.00
2023-02-26T17:18:36.127Z,0.80
2023-02-26T17:21:06.781Z,0.95
2023-02-26T17:23:37.013Z,1.13
2023-02-26T17:26:04.287Z,1.10
2023-02-26T17:28:37.208Z,1.15
2023-02-26T17:31:04.295Z,1.10
2023-02-26T17:33:31.798Z,0.90
2023-02-26T17:36:03.479Z,0.95
2023-02-26T17:38:30.312Z,1.00
2023-02-26T17:40:58.343Z,0.90
2023-02-26T17:43:25.434Z,1.00
2023-02-26T17:45:52.307Z,1.00
2023-02-26T17:48:19.064Z,1.13
2023-02-26T17:50:47.173Z,1.10
2023-02-26T17:53:17.289Z,1.20
2023-02-26T17:55:47.515Z,1.15
2023-02-26T17:58:29.157Z,0.82
2023-02-26T18:00:56.340Z,0.88
2023-02-26T18:03:23.166Z,0.90
2023-02-26T18:05:50.740Z,1.00
2023-02-26T18:08:25.185Z,1.00
2023-02-26T18:10:52.791Z,0.82
2023-02-26T18:13:20.140Z,1.20
2023-02-26T18:15:47.538Z,1.23
2023-02-26T18:18:17.349Z,1.25
2023-02-26T18:20:46.138Z,0.77
2023-02-26T18:23:13.929Z,1.13
2023-02-26T18:25:41.873Z,1.00
2023-02-26T18:28:21.658Z,1.08
2023-02-26T18:30:49.405Z,1.02
2023-02-26T18:33:17.156Z,0.90
2023-02-26T18:35:52.487Z,0.95
2023-02-26T18:38:21.656Z,0.95
2023-02-26T18:40:48.907Z,0.90
2023-02-26T18:43:15.767Z,1.08
2023-02-26T18:45:44.497Z,1.10
2023-02-26T18:48:12.691Z,0.90
2023-02-26T18:50:39.448Z,1.08
2023-02-26T18:53:07.074Z,1.17
2023-02-26T18:55:37.220Z,1.20
2023-02-26T18:58:05.448Z,1.27
2023-02-26T19:00:32.269Z,0.98
2023-02-26T19:02:59.280Z,0.98
2023-02-26T19:05:26.801Z,0.98
2023-02-26T19:07:54.490Z,1.23
2023-02-26T19:10:25.496Z,0.90
2023-02-26T19:12:55.515Z,1.10
2023-02-26T19:15:25.088Z,1.17
2023-02-26T19:18:00.741Z,0.88
2023-02-26T19:20:29.095Z,0.95
2023-02-26T19:22:58.257Z,1.10
2023-02-26T19:25:31.139Z,1.42
2023-02-26T19:28:01.169Z,1.20
2023-02-26T19:30:28.184Z,0.95
2023-02-26T19:32:55.310Z,1.20
2023-02-26T19:35:22.737Z,1.00
2023-02-26T19:37:49.734Z,1.00
2023-02-26T19:40:16.828Z,1.00
2023-02-26T19:42:43.862Z,1.40
2023-02-26T19:45:11.002Z,1.25
2023-02-26T19:47:38.003Z,0.82
2023-02-26T19:50:12.581Z,0.93
2023-02-26T19:52:39.943Z,0.80
2023-02-26T19:55:08.001Z,1.48
2023-02-26T19:57:34.809Z,0.88
2023-02-26T20:00:03.223Z,0.90
2023-02-26T20:02:30.332Z,0.90
2023-02-26T20:04:57.606Z,0.93
2023-02-26T20:07:31.948Z,1.40
2023-02-26T20:09:58.838Z,0.82
2023-02-26T20:12:25.549Z,0.98
2023-02-26T20:14:52.379Z,0.82
2023-02-26T20:17:20.806Z,0.82
2023-02-26T20:19:49.826Z,0.90
2023-02-26T20:22:17.275Z,0.98
2023-02-26T20:24:44.313Z,1.02
2023-02-26T20:27:11.394Z,0.88
2023-02-26T20:29:39.255Z,0.70
2023-02-26T20:32:07.508Z,0.95
2023-02-26T20:34:37.236Z,1.00
2023-02-26T20:37:04.635Z,0.80
2023-02-26T20:39:31.611Z,0.85
2023-02-26T20:41:58.609Z,0.65
2023-02-26T20:44:26.596Z,0.80
2023-02-26T20:46:55.026Z,1.00
2023-02-26T20:49:23.350Z,0.50
2023-02-26T20:51:51.699Z,0.80
2023-02-26T20:54:20.256Z,0.63
2023-02-26T20:56:48.733Z,0.70
2023-02-26T20:59:17.935Z,0.80
2023-02-26T21:01:45.815Z,0.80
2023-02-26T21:04:12.758Z,0.55
2023-02-26T21:06:39.595Z,0.60
2023-02-26T21:09:08.770Z,0.50
2023-02-26T21:11:37.233Z,0.90
2023-02-26T21:14:05.140Z,0.60
2023-02-26T21:16:32.009Z,0.60
2023-02-26T21:19:00.309Z,0.70
2023-02-26T21:21:27.237Z,0.60
2023-02-26T21:23:54.303Z,0.75
2023-02-26T21:26:21.319Z,0.50
2023-02-26T21:28:50.991Z,0.60
2023-02-26T21:31:19.168Z,0.55
2023-02-26T21:33:46.008Z,0.60
2023-02-26T21:36:14.053Z,0.40
2023-02-26T21:38:40.905Z,0.60
2023-02-26T21:41:08.887Z,0.60
2023-02-26T21:43:35.582Z,1.00
2023-02-26T21:46:02.402Z,0.80
2023-02-26T21:48:29.426Z,0.90
2023-02-26T21:50:56.646Z,1.00
2023-02-26T21:53:23.525Z,1.00
2023-02-26T21:55:50.325Z,0.90
2023-02-26T21:58:17.077Z,0.60
2023-02-26T22:00:44.121Z,1.13
2023-02-26T22:03:11.364Z,0.88
2023-02-26T22:05:39.151Z,0.77
2023-02-26T22:08:05.834Z,0.90
2023-02-26T22:10:32.515Z,0.88
2023-02-26T22:12:59.280Z,0.98
2023-02-26T22:15:25.943Z,0.80
2023-02-26T22:17:52.633Z,0.63
2023-02-26T22:20:19.451Z,0.88
2023-02-26T22:22:46.113Z,0.82
2023-02-26T22:25:13.041Z,0.75
2023-02-26T22:27:41.146Z,0.80
2023-02-26T22:30:08.763Z,0.80
2023-02-26T22:32:35.951Z,0.80
2023-02-26T22:35:02.733Z,0.70
2023-02-26T22:37:29.432Z,0.80
2023-02-26T22:39:56.634Z,0.57
2023-02-26T22:42:23.286Z,0.60
2023-02-26T22:44:50.065Z,0.60
2023-02-26T22:47:19.012Z,0.80
2023-02-26T22:49:46.212Z,0.88
2023-02-26T22:52:14.061Z,0.80
2023-02-26T22:54:42.294Z,0.52
2023-02-26T22:57:09.039Z,0.70
2023-02-26T22:59:35.727Z,0.75
2023-02-26T23:02:02.466Z,0.73
2023-02-26T23:04:29.231Z,0.90
2023-02-26T23:06:55.936Z,0.68
2023-02-26T23:09:22.699Z,0.70
2023-02-26T23:11:49.412Z,0.70
2023-02-26T23:14:16.097Z,0.47
2023-02-26T23:16:43.390Z,0.80
2023-02-26T23:19:10.400Z,0.70
2023-02-26T23:21:38.074Z,0.68
2023-02-26T23:24:04.956Z,0.60
2023-02-26T23:26:31.926Z,0.50
2023-02-26T23:28:58.656Z,0.85
2023-02-26T23:31:25.969Z,0.80
2023-02-26T23:33:52.957Z,0.60
2023-02-26T23:36:19.686Z,0.60
2023-02-26T23:38:46.510Z,0.50
2023-02-26T23:41:14.596Z,0.57
2023-02-26T23:43:41.349Z,0.50
2023-02-26T23:46:08.083Z,0.73
2023-02-26T23:48:34.872Z,0.90
2023-02-26T23:51:01.589Z,0.75
2023-02-26T23:53:28.265Z,0.60
2023-02-26T23:55:58.731Z,0.50
2023-02-26T23:58:26.433Z,0.60
